sensor_id;sensor_type;location;lat;lon;timestamp;pressure;altitude;pressure_sealevel;temperature;humidity
9740;BME280;4909;42.680;26.324;2023-02-11T00:00:12;100409.09;;;-1.82;58.30
9740;BME280;4909;42.680;26.324;2023-02-11T00:02:39;100437.25;;;-1.70;58.70
9740;BME280;4909;42.680;26.324;2023-02-11T00:05:06;100431.09;;;-1.72;58.63
9740;BME280;4909;42.680;26.324;2023-02-11T00:07:33;100457.34;;;-1.66;58.86
9740;BME280;4909;42.680;26.324;2023-02-11T00:10:00;100456.38;;;-1.68;59.14
9740;BME280;4909;42.680;26.324;2023-02-11T00:12:29;100456.00;;;-1.80;59.73
9740;BME280;4909;42.680;26.324;2023-02-11T00:14:56;100457.50;;;-1.87;58.93
9740;BME280;4909;42.680;26.324;2023-02-11T00:17:22;100454.13;;;-1.31;58.77
9740;BME280;4909;42.680;26.324;2023-02-11T00:19:49;100454.91;;;-1.06;55.70
9740;BME280;4909;42.680;26.324;2023-02-11T00:22:16;100399.97;;;-1.14;55.79
9740;BME280;4909;42.680;26.324;2023-02-11T00:24:43;100452.03;;;-0.57;54.54
9740;BME280;4909;42.680;26.324;2023-02-11T00:27:10;100450.78;;;-1.00;55.62
9740;BME280;4909;42.680;26.324;2023-02-11T00:29:38;100444.13;;;-1.18;56.74
9740;BME280;4909;42.680;26.324;2023-02-11T00:32:05;100447.69;;;-1.15;55.27
9740;BME280;4909;42.680;26.324;2023-02-11T00:34:33;100445.69;;;-1.23;56.06
9740;BME280;4909;42.680;26.324;2023-02-11T00:37:00;100441.16;;;-1.02;55.51
9740;BME280;4909;42.680;26.324;2023-02-11T00:39:28;100442.31;;;-0.93;54.78
9740;BME280;4909;42.680;26.324;2023-02-11T00:41:54;100437.25;;;-0.87;54.95
9740;BME280;4909;42.680;26.324;2023-02-11T00:44:21;100439.34;;;-0.75;53.18
9740;BME280;4909;42.680;26.324;2023-02-11T00:46:49;100371.22;;;-1.17;53.44
9740;BME280;4909;42.680;26.324;2023-02-11T00:49:16;100436.03;;;-0.99;53.77
9740;BME280;4909;42.680;26.324;2023-02-11T00:51:43;100441.03;;;-1.34;53.19
9740;BME280;4909;42.680;26.324;2023-02-11T00:54:10;100435.03;;;-1.58;55.09
9740;BME280;4909;42.680;26.324;2023-02-11T00:56:36;100382.31;;;-2.30;56.25
9740;BME280;4909;42.680;26.324;2023-02-11T00:59:03;100436.47;;;-2.18;56.91
9740;BME280;4909;42.680;26.324;2023-02-11T01:01:30;100431.97;;;-2.22;57.10
9740;BME280;4909;42.680;26.324;2023-02-11T01:03:58;100428.28;;;-2.29;57.75
9740;BME280;4909;42.680;26.324;2023-02-11T01:06:25;100425.78;;;-2.26;57.35
9740;BME280;4909;42.680;26.324;2023-02-11T01:08:51;100368.91;;;-2.66;58.08
9740;BME280;4909;42.680;26.324;2023-02-11T01:11:20;100427.44;;;-2.53;58.64
9740;BME280;4909;42.680;26.324;2023-02-11T01:13:48;100405.50;;;-2.59;58.73
9740;BME280;4909;42.680;26.324;2023-02-11T01:16:16;100417.59;;;-2.36;58.72
9740;BME280;4909;42.680;26.324;2023-02-11T01:18:43;100419.59;;;-2.29;57.84
9740;BME280;4909;42.680;26.324;2023-02-11T01:21:11;100420.00;;;-2.17;57.87
9740;BME280;4909;42.680;26.324;2023-02-11T01:23:38;100423.19;;;-2.26;58.32
9740;BME280;4909;42.680;26.324;2023-02-11T01:26:04;100412.66;;;-2.05;57.28
9740;BME280;4909;42.680;26.324;2023-02-11T01:28:32;100418.31;;;-2.16;58.04
9740;BME280;4909;42.680;26.324;2023-02-11T01:30:59;100382.50;;;-1.98;56.80
9740;BME280;4909;42.680;26.324;2023-02-11T01:33:26;100400.09;;;-1.91;56.67
9740;BME280;4909;42.680;26.324;2023-02-11T01:35:52;100408.06;;;-2.12;57.35
9740;BME280;4909;42.680;26.324;2023-02-11T01:38:23;100394.13;;;-2.14;57.26
9740;BME280;4909;42.680;26.324;2023-02-11T01:40:51;100391.91;;;-2.27;57.55
9740;BME280;4909;42.680;26.324;2023-02-11T01:43:20;100399.22;;;-2.17;57.70
9740;BME280;4909;42.680;26.324;2023-02-11T01:45:59;100387.81;;;-1.95;57.13
9740;BME280;4909;42.680;26.324;2023-02-11T01:48:30;100382.72;;;-1.92;57.22
9740;BME280;4909;42.680;26.324;2023-02-11T01:51:00;100380.22;;;-1.89;56.55
9740;BME280;4909;42.680;26.324;2023-02-11T01:53:31;100391.09;;;-1.74;55.82
9740;BME280;4909;42.680;26.324;2023-02-11T01:56:17;100387.31;;;-1.84;56.83
9740;BME280;4909;42.680;26.324;2023-02-11T01:59:06;100394.38;;;-1.81;56.77
9740;BME280;4909;42.680;26.324;2023-02-11T02:01:37;100391.88;;;-1.51;56.24
9740;BME280;4909;42.680;26.324;2023-02-11T02:04:07;100368.72;;;-1.96;56.25
9740;BME280;4909;42.680;26.324;2023-02-11T02:06:38;100353.44;;;-2.12;56.75
9740;BME280;4909;42.680;26.324;2023-02-11T02:09:11;100385.22;;;-1.95;56.91
9740;BME280;4909;42.680;26.324;2023-02-11T02:11:42;100386.00;;;-1.71;55.92
9740;BME280;4909;42.680;26.324;2023-02-11T02:14:09;100383.72;;;-1.62;55.35
9740;BME280;4909;42.680;26.324;2023-02-11T02:16:36;100382.75;;;-1.64;55.95
9740;BME280;4909;42.680;26.324;2023-02-11T02:19:23;100385.41;;;-1.36;54.36
9740;BME280;4909;42.680;26.324;2023-02-11T02:22:11;100395.03;;;-1.33;53.92
9740;BME280;4909;42.680;26.324;2023-02-11T02:25:04;100389.88;;;-1.32;53.45
9740;BME280;4909;42.680;26.324;2023-02-11T02:27:48;100389.63;;;-1.39;53.51
9740;BME280;4909;42.680;26.324;2023-02-11T02:30:48;100382.59;;;-1.13;53.50
9740;BME280;4909;42.680;26.324;2023-02-11T02:33:26;100378.19;;;-0.86;52.20
9740;BME280;4909;42.680;26.324;2023-02-11T02:36:06;100343.53;;;-1.13;50.12
9740;BME280;4909;42.680;26.324;2023-02-11T02:38:37;100377.88;;;-0.97;50.99
9740;BME280;4909;42.680;26.324;2023-02-11T02:41:08;100371.81;;;-0.97;49.91
9740;BME280;4909;42.680;26.324;2023-02-11T02:43:39;100370.06;;;-0.67;49.03
9740;BME280;4909;42.680;26.324;2023-02-11T02:46:10;100377.41;;;-0.52;49.20
9740;BME280;4909;42.680;26.324;2023-02-11T02:48:39;100375.28;;;-0.35;48.15
9740;BME280;4909;42.680;26.324;2023-02-11T02:51:24;100388.50;;;-0.29;47.36
9740;BME280;4909;42.680;26.324;2023-02-11T02:53:59;100379.00;;;-0.57;47.09
9740;BME280;4909;42.680;26.324;2023-02-11T02:56:35;100374.81;;;-0.82;47.67
9740;BME280;4909;42.680;26.324;2023-02-11T02:59:24;100380.41;;;-0.70;47.93
9740;BME280;4909;42.680;26.324;2023-02-11T03:02:04;100362.41;;;-0.92;47.59
9740;BME280;4909;42.680;26.324;2023-02-11T03:04:37;100373.28;;;-0.75;47.48
9740;BME280;4909;42.680;26.324;2023-02-11T03:07:13;100378.75;;;-0.98;48.15
9740;BME280;4909;42.680;26.324;2023-02-11T03:09:47;100370.88;;;-0.99;47.70
9740;BME280;4909;42.680;26.324;2023-02-11T03:12:15;100374.94;;;-1.09;47.46
9740;BME280;4909;42.680;26.324;2023-02-11T03:14:43;100381.94;;;-1.06;48.16
9740;BME280;4909;42.680;26.324;2023-02-11T03:17:13;100376.19;;;-1.24;47.06
9740;BME280;4909;42.680;26.324;2023-02-11T03:19:45;100381.44;;;-1.23;47.75
9740;BME280;4909;42.680;26.324;2023-02-11T03:22:17;100375.25;;;-0.98;47.71
9740;BME280;4909;42.680;26.324;2023-02-11T03:24:45;100385.03;;;-1.19;47.17
9740;BME280;4909;42.680;26.324;2023-02-11T03:27:17;100382.81;;;-1.36;48.23
9740;BME280;4909;42.680;26.324;2023-02-11T03:29:50;100346.34;;;-1.36;47.46
9740;BME280;4909;42.680;26.324;2023-02-11T03:32:22;100371.22;;;-1.17;46.07
9740;BME280;4909;42.680;26.324;2023-02-11T03:34:56;100356.25;;;-0.94;45.18
9740;BME280;4909;42.680;26.324;2023-02-11T03:37:29;100360.66;;;-0.92;44.93
9740;BME280;4909;42.680;26.324;2023-02-11T03:40:01;100358.78;;;-1.25;43.15
9740;BME280;4909;42.680;26.324;2023-02-11T03:42:33;100360.81;;;-1.15;44.60
9740;BME280;4909;42.680;26.324;2023-02-11T03:45:05;100361.63;;;-1.18;44.23
9740;BME280;4909;42.680;26.324;2023-02-11T03:47:35;100357.69;;;-0.74;42.55
9740;BME280;4909;42.680;26.324;2023-02-11T03:50:08;100357.19;;;-0.61;41.82
9740;BME280;4909;42.680;26.324;2023-02-11T03:52:37;100358.06;;;-0.60;42.23
9740;BME280;4909;42.680;26.324;2023-02-11T03:55:08;100358.34;;;-0.81;42.94
9740;BME280;4909;42.680;26.324;2023-02-11T03:57:36;100356.41;;;-0.58;41.43
9740;BME280;4909;42.680;26.324;2023-02-11T04:00:05;100337.25;;;-0.90;41.88
9740;BME280;4909;42.680;26.324;2023-02-11T04:02:34;100355.84;;;-0.78;42.38
9740;BME280;4909;42.680;26.324;2023-02-11T04:05:01;100359.56;;;-0.70;41.94
9740;BME280;4909;42.680;26.324;2023-02-11T04:07:29;100362.94;;;-0.72;41.16
9740;BME280;4909;42.680;26.324;2023-02-11T04:09:55;100364.06;;;-0.64;41.75
9740;BME280;4909;42.680;26.324;2023-02-11T04:12:22;100363.06;;;-0.99;42.73
9740;BME280;4909;42.680;26.324;2023-02-11T04:14:49;100362.66;;;-0.83;41.75
9740;BME280;4909;42.680;26.324;2023-02-11T04:17:16;100358.00;;;-0.63;41.95
9740;BME280;4909;42.680;26.324;2023-02-11T04:19:43;100318.78;;;-0.68;41.07
9740;BME280;4909;42.680;26.324;2023-02-11T04:22:10;100356.78;;;-0.45;41.61
9740;BME280;4909;42.680;26.324;2023-02-11T04:24:38;100348.59;;;-0.57;43.91
9740;BME280;4909;42.680;26.324;2023-02-11T04:27:05;100321.53;;;-0.62;42.79
9740;BME280;4909;42.680;26.324;2023-02-11T04:29:31;100347.91;;;-0.82;43.74
9740;BME280;4909;42.680;26.324;2023-02-11T04:31:58;100355.88;;;-1.06;44.93
9740;BME280;4909;42.680;26.324;2023-02-11T04:34:25;100342.44;;;-1.21;45.70
9740;BME280;4909;42.680;26.324;2023-02-11T04:36:52;100336.69;;;-1.10;45.72
9740;BME280;4909;42.680;26.324;2023-02-11T04:39:19;100347.03;;;-1.11;46.25
9740;BME280;4909;42.680;26.324;2023-02-11T04:41:47;100344.56;;;-0.77;46.42
9740;BME280;4909;42.680;26.324;2023-02-11T04:44:14;100351.91;;;-0.64;46.04
9740;BME280;4909;42.680;26.324;2023-02-11T04:46:40;100346.94;;;-0.55;45.17
9740;BME280;4909;42.680;26.324;2023-02-11T04:49:09;100345.22;;;-0.53;45.48
9740;BME280;4909;42.680;26.324;2023-02-11T04:51:37;100277.28;;;-0.90;45.34
9740;BME280;4909;42.680;26.324;2023-02-11T04:54:04;100346.09;;;-0.54;45.44
9740;BME280;4909;42.680;26.324;2023-02-11T04:56:30;100335.53;;;-0.90;46.45
9740;BME280;4909;42.680;26.324;2023-02-11T04:58:59;100333.22;;;-0.79;46.69
9740;BME280;4909;42.680;26.324;2023-02-11T05:01:25;100332.09;;;-0.87;46.76
9740;BME280;4909;42.680;26.324;2023-02-11T05:03:52;100333.81;;;-0.89;47.56
9740;BME280;4909;42.680;26.324;2023-02-11T05:06:19;100328.41;;;-0.95;47.58
9740;BME280;4909;42.680;26.324;2023-02-11T05:08:46;100331.06;;;-0.94;47.67
9740;BME280;4909;42.680;26.324;2023-02-11T05:11:15;100331.03;;;-0.95;47.91
9740;BME280;4909;42.680;26.324;2023-02-11T05:13:42;100333.16;;;-0.80;48.27
9740;BME280;4909;42.680;26.324;2023-02-11T05:16:11;100337.16;;;-0.63;47.84
9740;BME280;4909;42.680;26.324;2023-02-11T05:18:38;100333.53;;;-0.35;47.08
9740;BME280;4909;42.680;26.324;2023-02-11T05:21:06;100338.06;;;-0.61;47.13
9740;BME280;4909;42.680;26.324;2023-02-11T05:23:33;100338.28;;;-0.54;47.40
9740;BME280;4909;42.680;26.324;2023-02-11T05:26:00;100344.56;;;-0.46;46.59
9740;BME280;4909;42.680;26.324;2023-02-11T05:28:27;100341.59;;;-0.59;46.84
9740;BME280;4909;42.680;26.324;2023-02-11T05:30:53;100335.16;;;-0.72;47.55
9740;BME280;4909;42.680;26.324;2023-02-11T05:33:22;100343.53;;;-0.82;48.91
9740;BME280;4909;42.680;26.324;2023-02-11T05:35:49;100337.31;;;-0.87;48.83
9740;BME280;4909;42.680;26.324;2023-02-11T05:38:16;100324.09;;;-0.95;49.48
9740;BME280;4909;42.680;26.324;2023-02-11T05:40:42;100334.63;;;-0.90;49.71
9740;BME280;4909;42.680;26.324;2023-02-11T05:43:09;100340.09;;;-0.82;49.29
9740;BME280;4909;42.680;26.324;2023-02-11T05:45:36;100346.50;;;-0.70;49.37
9740;BME280;4909;42.680;26.324;2023-02-11T05:48:03;100339.44;;;-0.74;49.92
9740;BME280;4909;42.680;26.324;2023-02-11T05:50:31;100343.72;;;-0.76;50.86
9740;BME280;4909;42.680;26.324;2023-02-11T05:52:58;100341.22;;;-0.73;50.51
9740;BME280;4909;42.680;26.324;2023-02-11T05:55:24;100345.31;;;-0.81;50.97
9740;BME280;4909;42.680;26.324;2023-02-11T05:57:51;100343.97;;;-0.67;51.64
9740;BME280;4909;42.680;26.324;2023-02-11T06:00:18;100350.31;;;-0.26;51.61
9740;BME280;4909;42.680;26.324;2023-02-11T06:02:45;100337.50;;;-0.17;51.26
9740;BME280;4909;42.680;26.324;2023-02-11T06:05:12;100345.75;;;0.00;52.17
9740;BME280;4909;42.680;26.324;2023-02-11T06:07:40;100343.03;;;1.09;50.34
9740;BME280;4909;42.680;26.324;2023-02-11T06:10:07;100320.91;;;3.01;44.63
9740;BME280;4909;42.680;26.324;2023-02-11T06:12:35;100340.00;;;4.64;39.98
9740;BME280;4909;42.680;26.324;2023-02-11T06:15:02;100339.50;;;5.49;37.61
9740;BME280;4909;42.680;26.324;2023-02-11T06:17:29;100333.41;;;5.56;36.96
9740;BME280;4909;42.680;26.324;2023-02-11T06:19:58;100342.31;;;6.28;36.25
9740;BME280;4909;42.680;26.324;2023-02-11T06:22:27;100329.84;;;7.07;33.57
9740;BME280;4909;42.680;26.324;2023-02-11T06:24:55;100332.16;;;7.77;32.32
9740;BME280;4909;42.680;26.324;2023-02-11T06:27:22;100334.72;;;7.84;32.14
9740;BME280;4909;42.680;26.324;2023-02-11T06:29:49;100326.53;;;9.12;31.52
9740;BME280;4909;42.680;26.324;2023-02-11T06:32:16;100336.13;;;9.88;29.13
9740;BME280;4909;42.680;26.324;2023-02-11T06:34:43;100329.84;;;9.30;28.85
9740;BME280;4909;42.680;26.324;2023-02-11T06:37:10;100331.69;;;9.89;27.83
9740;BME280;4909;42.680;26.324;2023-02-11T06:39:37;100324.50;;;10.54;26.74
9740;BME280;4909;42.680;26.324;2023-02-11T06:42:05;100327.72;;;10.71;26.10
9740;BME280;4909;42.680;26.324;2023-02-11T06:44:32;100323.53;;;10.59;26.10
9740;BME280;4909;42.680;26.324;2023-02-11T06:46:59;100334.63;;;10.30;27.20
9740;BME280;4909;42.680;26.324;2023-02-11T06:49:26;100329.53;;;11.15;26.67
9740;BME280;4909;42.680;26.324;2023-02-11T06:51:53;100332.75;;;11.30;26.55
9740;BME280;4909;42.680;26.324;2023-02-11T06:54:19;100331.69;;;10.95;27.11
9740;BME280;4909;42.680;26.324;2023-02-11T06:56:46;100323.34;;;10.68;27.20
9740;BME280;4909;42.680;26.324;2023-02-11T06:59:16;100334.75;;;11.19;26.49
9740;BME280;4909;42.680;26.324;2023-02-11T07:01:45;100330.59;;;11.49;26.32
9740;BME280;4909;42.680;26.324;2023-02-11T07:04:12;100323.41;;;12.65;25.19
9740;BME280;4909;42.680;26.324;2023-02-11T07:06:39;100325.44;;;12.89;24.47
9740;BME280;4909;42.680;26.324;2023-02-11T07:09:06;100315.34;;;12.34;24.75
9740;BME280;4909;42.680;26.324;2023-02-11T07:11:33;100317.03;;;12.01;25.70
9740;BME280;4909;42.680;26.324;2023-02-11T07:14:02;100323.06;;;12.45;25.40
9740;BME280;4909;42.680;26.324;2023-02-11T07:16:31;100323.31;;;12.70;25.31
9740;BME280;4909;42.680;26.324;2023-02-11T07:18:58;100327.91;;;13.60;24.21
9740;BME280;4909;42.680;26.324;2023-02-11T07:21:24;100324.81;;;13.44;24.27
9740;BME280;4909;42.680;26.324;2023-02-11T07:23:51;100323.72;;;13.21;24.31
9740;BME280;4909;42.680;26.324;2023-02-11T07:26:22;100312.44;;;14.53;22.77
9740;BME280;4909;42.680;26.324;2023-02-11T07:28:50;100297.72;;;15.64;21.36
9740;BME280;4909;42.680;26.324;2023-02-11T07:31:19;100303.56;;;15.50;21.63
9740;BME280;4909;42.680;26.324;2023-02-11T07:33:48;100305.22;;;15.78;21.25
9740;BME280;4909;42.680;26.324;2023-02-11T07:36:15;100312.31;;;15.07;21.51
9740;BME280;4909;42.680;26.324;2023-02-11T07:38:43;100313.41;;;14.77;22.36
9740;BME280;4909;42.680;26.324;2023-02-11T07:41:11;100319.00;;;13.89;23.12
9740;BME280;4909;42.680;26.324;2023-02-11T07:43:39;100323.31;;;14.21;23.20
9740;BME280;4909;42.680;26.324;2023-02-11T07:46:07;100310.66;;;14.54;22.76
9740;BME280;4909;42.680;26.324;2023-02-11T07:48:34;100306.09;;;14.29;23.04
9740;BME280;4909;42.680;26.324;2023-02-11T07:51:08;100310.81;;;15.00;22.29
9740;BME280;4909;42.680;26.324;2023-02-11T07:53:35;100312.09;;;15.61;21.84
9740;BME280;4909;42.680;26.324;2023-02-11T07:56:03;100309.63;;;15.32;21.93
9740;BME280;4909;42.680;26.324;2023-02-11T07:58:30;100309.97;;;16.58;21.16
9740;BME280;4909;42.680;26.324;2023-02-11T08:01:00;100299.88;;;16.85;20.75
9740;BME280;4909;42.680;26.324;2023-02-11T08:03:27;100307.84;;;16.66;20.69
9740;BME280;4909;42.680;26.324;2023-02-11T08:05:54;100307.44;;;16.75;20.69
9740;BME280;4909;42.680;26.324;2023-02-11T08:08:25;100308.88;;;16.20;21.16
9740;BME280;4909;42.680;26.324;2023-02-11T08:10:53;100303.69;;;16.59;21.10
9740;BME280;4909;42.680;26.324;2023-02-11T08:13:19;100301.75;;;16.83;20.97
9740;BME280;4909;42.680;26.324;2023-02-11T08:15:46;100308.75;;;15.78;21.87
9740;BME280;4909;42.680;26.324;2023-02-11T08:18:13;100293.78;;;16.81;20.67
9740;BME280;4909;42.680;26.324;2023-02-11T08:20:40;100259.38;;;17.49;19.95
9740;BME280;4909;42.680;26.324;2023-02-11T08:23:07;100299.84;;;17.83;19.69
9740;BME280;4909;42.680;26.324;2023-02-11T08:25:35;100297.19;;;17.44;19.86
9740;BME280;4909;42.680;26.324;2023-02-11T08:28:02;100295.50;;;16.62;20.43
9740;BME280;4909;42.680;26.324;2023-02-11T08:30:30;100289.50;;;16.56;20.76
9740;BME280;4909;42.680;26.324;2023-02-11T08:32:57;100292.97;;;16.59;20.45
9740;BME280;4909;42.680;26.324;2023-02-11T08:35:24;100296.06;;;16.48;20.82
9740;BME280;4909;42.680;26.324;2023-02-11T08:37:51;100288.47;;;17.00;20.39
9740;BME280;4909;42.680;26.324;2023-02-11T08:40:19;100285.78;;;17.39;20.02
9740;BME280;4909;42.680;26.324;2023-02-11T08:42:47;100280.47;;;18.31;19.32
9740;BME280;4909;42.680;26.324;2023-02-11T08:45:14;100287.66;;;17.95;19.56
9740;BME280;4909;42.680;26.324;2023-02-11T08:47:41;100284.69;;;17.63;19.79
9740;BME280;4909;42.680;26.324;2023-02-11T08:50:08;100279.88;;;17.51;19.74
9740;BME280;4909;42.680;26.324;2023-02-11T08:52:35;100280.41;;;17.59;19.77
9740;BME280;4909;42.680;26.324;2023-02-11T08:55:02;100269.72;;;17.95;19.57
9740;BME280;4909;42.680;26.324;2023-02-11T08:57:29;100270.75;;;17.16;20.03
9740;BME280;4909;42.680;26.324;2023-02-11T08:59:58;100276.81;;;17.01;20.22
9740;BME280;4909;42.680;26.324;2023-02-11T09:02:24;100269.81;;;16.15;20.83
9740;BME280;4909;42.680;26.324;2023-02-11T09:04:51;100262.88;;;15.19;22.21
9740;BME280;4909;42.680;26.324;2023-02-11T09:07:18;100254.31;;;14.33;23.41
9740;BME280;4909;42.680;26.324;2023-02-11T09:09:45;100250.09;;;15.02;22.25
9740;BME280;4909;42.680;26.324;2023-02-11T09:12:12;100249.63;;;15.62;21.32
9740;BME280;4909;42.680;26.324;2023-02-11T09:14:39;100238.97;;;15.38;21.71
9740;BME280;4909;42.680;26.324;2023-02-11T09:17:17;100232.03;;;16.21;20.12
9740;BME280;4909;42.680;26.324;2023-02-11T09:19:44;100235.78;;;16.37;19.85
9740;BME280;4909;42.680;26.324;2023-02-11T09:22:11;100234.94;;;15.73;19.92
9740;BME280;4909;42.680;26.324;2023-02-11T09:24:38;100236.75;;;15.49;20.64
9740;BME280;4909;42.680;26.324;2023-02-11T09:27:05;100235.09;;;14.98;20.80
9740;BME280;4909;42.680;26.324;2023-02-11T09:29:31;100234.81;;;14.05;21.64
9740;BME280;4909;42.680;26.324;2023-02-11T09:31:58;100225.81;;;13.54;22.25
9740;BME280;4909;42.680;26.324;2023-02-11T09:34:26;100220.88;;;13.96;22.60
9740;BME280;4909;42.680;26.324;2023-02-11T09:36:53;100216.28;;;14.01;22.87
9740;BME280;4909;42.680;26.324;2023-02-11T09:39:20;100214.88;;;13.33;23.89
9740;BME280;4909;42.680;26.324;2023-02-11T09:42:00;100211.28;;;13.36;24.80
9740;BME280;4909;42.680;26.324;2023-02-11T09:44:32;100209.22;;;12.53;25.44
9740;BME280;4909;42.680;26.324;2023-02-11T09:47:00;100202.59;;;12.01;26.62
9740;BME280;4909;42.680;26.324;2023-02-11T09:49:34;100205.19;;;11.29;27.87
9740;BME280;4909;42.680;26.324;2023-02-11T09:52:07;100205.22;;;9.37;30.59
9740;BME280;4909;42.680;26.324;2023-02-11T09:54:45;100209.66;;;8.69;32.43
9740;BME280;4909;42.680;26.324;2023-02-11T09:57:16;100204.09;;;8.13;33.10
9740;BME280;4909;42.680;26.324;2023-02-11T09:59:43;100200.41;;;8.24;34.00
9740;BME280;4909;42.680;26.324;2023-02-11T10:02:14;100188.41;;;7.90;33.79
9740;BME280;4909;42.680;26.324;2023-02-11T10:05:01;100190.97;;;8.01;34.21
9740;BME280;4909;42.680;26.324;2023-02-11T10:07:39;100180.59;;;7.78;34.45
9740;BME280;4909;42.680;26.324;2023-02-11T10:10:16;100189.03;;;8.16;33.86
9740;BME280;4909;42.680;26.324;2023-02-11T10:13:01;100154.66;;;8.18;33.88
9740;BME280;4909;42.680;26.324;2023-02-11T10:15:39;100167.06;;;8.13;34.70
9740;BME280;4909;42.680;26.324;2023-02-11T10:18:21;100143.31;;;8.08;34.99
9740;BME280;4909;42.680;26.324;2023-02-11T10:21:04;100157.84;;;8.50;34.97
9740;BME280;4909;42.680;26.324;2023-02-11T10:23:35;100138.25;;;7.84;35.27
9740;BME280;4909;42.680;26.324;2023-02-11T10:26:10;100145.44;;;7.67;35.66
9740;BME280;4909;42.680;26.324;2023-02-11T10:28:39;100137.88;;;7.23;37.66
9740;BME280;4909;42.680;26.324;2023-02-11T10:31:12;100140.75;;;6.86;38.67
9740;BME280;4909;42.680;26.324;2023-02-11T10:33:43;100137.09;;;7.10;38.19
9740;BME280;4909;42.680;26.324;2023-02-11T10:36:14;100130.75;;;7.35;37.31
9740;BME280;4909;42.680;26.324;2023-02-11T10:38:42;100128.00;;;7.49;36.77
9740;BME280;4909;42.680;26.324;2023-02-11T10:41:10;100121.78;;;7.55;36.21
9740;BME280;4909;42.680;26.324;2023-02-11T10:43:41;100116.28;;;7.79;36.26
9740;BME280;4909;42.680;26.324;2023-02-11T10:46:15;100109.03;;;7.95;35.10
9740;BME280;4909;42.680;26.324;2023-02-11T10:48:44;100104.56;;;8.03;34.66
9740;BME280;4909;42.680;26.324;2023-02-11T10:51:20;100102.19;;;7.77;34.37
9740;BME280;4909;42.680;26.324;2023-02-11T10:53:48;100108.41;;;7.71;34.31
9740;BME280;4909;42.680;26.324;2023-02-11T10:56:23;100096.06;;;7.72;34.31
9740;BME280;4909;42.680;26.324;2023-02-11T10:58:57;100086.38;;;7.74;34.23
9740;BME280;4909;42.680;26.324;2023-02-11T11:01:38;100089.78;;;7.83;33.31
9740;BME280;4909;42.680;26.324;2023-02-11T11:04:26;100087.84;;;8.02;33.25
9740;BME280;4909;42.680;26.324;2023-02-11T11:07:10;100074.19;;;7.59;32.88
9740;BME280;4909;42.680;26.324;2023-02-11T11:09:44;100066.06;;;7.77;33.10
9740;BME280;4909;42.680;26.324;2023-02-11T11:12:23;100071.25;;;7.86;32.98
9740;BME280;4909;42.680;26.324;2023-02-11T11:14:54;100063.06;;;8.09;32.24
9740;BME280;4909;42.680;26.324;2023-02-11T11:17:21;100071.59;;;8.34;30.82
9740;BME280;4909;42.680;26.324;2023-02-11T11:19:47;100061.72;;;7.70;31.48
9740;BME280;4909;42.680;26.324;2023-02-11T11:22:21;100066.44;;;7.39;31.74
9740;BME280;4909;42.680;26.324;2023-02-11T11:24:48;100064.41;;;7.66;31.47
9740;BME280;4909;42.680;26.324;2023-02-11T11:27:20;100055.34;;;7.91;31.02
9740;BME280;4909;42.680;26.324;2023-02-11T11:29:50;100050.31;;;7.68;31.54
9740;BME280;4909;42.680;26.324;2023-02-11T11:32:20;100023.88;;;7.67;32.25
9740;BME280;4909;42.680;26.324;2023-02-11T11:34:49;100038.53;;;7.97;31.35
9740;BME280;4909;42.680;26.324;2023-02-11T11:37:23;100036.53;;;8.15;31.69
9740;BME280;4909;42.680;26.324;2023-02-11T11:39:59;100037.25;;;7.52;31.57
9740;BME280;4909;42.680;26.324;2023-02-11T11:42:29;100032.63;;;7.73;31.81
9740;BME280;4909;42.680;26.324;2023-02-11T11:44:58;100026.63;;;7.58;31.87
9740;BME280;4909;42.680;26.324;2023-02-11T11:47:30;100021.03;;;7.86;31.89
9740;BME280;4909;42.680;26.324;2023-02-11T11:50:20;100024.59;;;7.82;31.47
9740;BME280;4909;42.680;26.324;2023-02-11T11:52:55;100015.91;;;7.74;31.83
9740;BME280;4909;42.680;26.324;2023-02-11T11:55:28;100014.09;;;7.75;31.67
9740;BME280;4909;42.680;26.324;2023-02-11T11:57:57;100006.53;;;7.41;32.54
9740;BME280;4909;42.680;26.324;2023-02-11T12:00:29;99999.03;;;6.96;33.20
9740;BME280;4909;42.680;26.324;2023-02-11T12:03:12;100002.88;;;6.51;34.17
9740;BME280;4909;42.680;26.324;2023-02-11T12:05:51;99990.06;;;7.15;33.25
9740;BME280;4909;42.680;26.324;2023-02-11T12:08:30;99993.47;;;7.26;33.22
9740;BME280;4909;42.680;26.324;2023-02-11T12:11:11;99969.53;;;7.45;32.54
9740;BME280;4909;42.680;26.324;2023-02-11T12:13:53;99987.44;;;7.95;32.23
9740;BME280;4909;42.680;26.324;2023-02-11T12:16:33;99981.03;;;7.40;32.51
9740;BME280;4909;42.680;26.324;2023-02-11T12:22:21;99972.91;;;7.59;32.34
9740;BME280;4909;42.680;26.324;2023-02-11T12:25:15;99960.53;;;7.61;32.28
9740;BME280;4909;42.680;26.324;2023-02-11T12:27:48;99969.44;;;7.51;32.10
9740;BME280;4909;42.680;26.324;2023-02-11T12:30:23;99909.66;;;7.43;32.10
9740;BME280;4909;42.680;26.324;2023-02-11T12:32:58;99963.50;;;8.07;31.56
9740;BME280;4909;42.680;26.324;2023-02-11T12:35:33;99960.59;;;8.23;31.55
9740;BME280;4909;42.680;26.324;2023-02-11T12:38:18;99955.59;;;8.04;31.24
9740;BME280;4909;42.680;26.324;2023-02-11T12:41:00;99949.22;;;8.18;31.41
9740;BME280;4909;42.680;26.324;2023-02-11T12:43:35;99955.22;;;7.64;32.04
9740;BME280;4909;42.680;26.324;2023-02-11T12:46:20;99952.94;;;8.04;31.99
9740;BME280;4909;42.680;26.324;2023-02-11T12:49:04;99947.44;;;8.19;31.84
9740;BME280;4909;42.680;26.324;2023-02-11T12:51:43;99942.69;;;7.79;32.83
9740;BME280;4909;42.680;26.324;2023-02-11T12:54:19;99933.66;;;7.96;32.68
9740;BME280;4909;42.680;26.324;2023-02-11T12:56:54;99921.78;;;8.25;32.04
9740;BME280;4909;42.680;26.324;2023-02-11T12:59:39;99929.13;;;8.07;32.15
9740;BME280;4909;42.680;26.324;2023-02-11T13:02:16;99927.53;;;7.94;32.77
9740;BME280;4909;42.680;26.324;2023-02-11T13:04:48;99926.50;;;8.05;32.17
9740;BME280;4909;42.680;26.324;2023-02-11T13:07:20;99872.00;;;7.95;31.41
9740;BME280;4909;42.680;26.324;2023-02-11T13:09:53;99909.44;;;8.27;30.75
9740;BME280;4909;42.680;26.324;2023-02-11T13:12:22;99911.09;;;8.36;30.84
9740;BME280;4909;42.680;26.324;2023-02-11T13:15:13;99914.72;;;8.27;30.59
9740;BME280;4909;42.680;26.324;2023-02-11T13:17:47;99913.69;;;8.39;30.81
9740;BME280;4909;42.680;26.324;2023-02-11T13:20:35;99914.72;;;7.63;32.00
9740;BME280;4909;42.680;26.324;2023-02-11T13:23:14;99909.44;;;7.63;31.97
9740;BME280;4909;42.680;26.324;2023-02-11T13:25:49;99916.97;;;7.94;31.98